Time;durP1;ratioP1;P1;durP2;ratioP2;P2;SDS_P1;SDS_P2;PMS_P1;PMS_P2;Temp;Humidity;BMP_temperature;BMP_pressure;BME280_temperature;BME280_humidity;BME280_pressure;Samples;Min_cycle;Max_cycle;Signal;HPM_P1;HPM_P2
2023/02/24 00:00:31;;;;;;;;;;;;;;;4.00;99.08;98481.75;5029210;28;20007;-85
2023/02/24 00:03:04;;;;;;;;;;;;;;;3.86;99.00;98480.25;5045402;28;19925;-84
2023/02/24 00:05:32;;;;;;;;;;;;;;;3.89;98.29;98484.31;5048787;28;20329;-84
2023/02/24 00:07:57;;;;;;;;;;;;;;;3.70;98.96;98483.41;5048396;28;19924;-83
2023/02/24 00:10:23;;;;;;;;;;;;;;;3.98;99.87;98485.63;5056954;28;19923;-84
2023/02/24 00:12:48;;;;;;;;;;;;;;;3.86;99.87;98480.25;5051163;28;19929;-84
2023/02/24 00:15:14;;;;;;;;;;;;;;;4.08;99.38;98484.16;5044112;28;19982;-87
2023/02/24 00:17:39;;;;;;;;;;;;;;;4.66;99.31;98476.69;5042874;28;19932;-86
2023/02/24 00:20:10;;;;;;;;;;;;;;;4.16;97.79;98475.94;5041768;28;19925;-86
2023/02/24 00:22:36;;;;;;;;;;;;;;;3.66;98.52;98479.59;5041255;28;20393;-85
2023/02/24 00:25:02;;;;;;;;;;;;;;;3.85;99.07;98465.44;5059174;28;20457;-85
2023/02/24 00:27:28;;;;;;;;;;;;;;;4.31;99.19;98459.75;5050725;28;20050;-87
2023/02/24 00:29:53;;;;;;;;;;;;;;;4.10;99.17;98460.16;5034322;28;20024;-86
2023/02/24 00:32:19;;;;;;;;;;;;;;;3.95;98.60;98462.31;5053793;28;19916;-86
2023/02/24 00:34:45;;;;;;;;;;;;;;;4.57;98.51;98462.94;5067712;28;19929;-85
2023/02/24 00:37:11;;;;;;;;;;;;;;;4.60;97.04;98445.84;5051571;28;19928;-86
2023/02/24 00:39:40;;;;;;;;;;;;;;;5.20;97.52;98449.38;5047846;28;19924;-85
2023/02/24 00:42:05;;;;;;;;;;;;;;;4.52;95.65;98443.50;5051335;28;19975;-85
2023/02/24 00:44:31;;;;;;;;;;;;;;;4.22;96.00;98442.56;5047589;28;19925;-86
2023/02/24 00:46:57;;;;;;;;;;;;;;;4.32;96.16;98453.47;5045941;28;19920;-86
2023/02/24 00:49:23;;;;;;;;;;;;;;;4.19;95.88;98432.47;5046742;28;19976;-85
2023/02/24 00:51:53;;;;;;;;;;;;;;;4.93;95.86;98433.06;5046496;28;20675;-86
2023/02/24 00:54:18;;;;;;;;;;;;;;;4.71;94.81;98434.53;5058756;28;20408;-86
2023/02/24 00:56:45;;;;;;;;;;;;;;;4.76;94.16;98421.44;5027401;28;19984;-86
2023/02/24 00:59:11;;;;;;;;;;;;;;;4.90;94.42;98414.19;5061168;28;20264;-86
2023/02/24 01:01:37;;;;;;;;;;;;;;;4.80;93.58;98421.84;5043499;28;19921;-85
2023/02/24 01:04:09;;;;;;;;;;;;;;;4.45;93.97;98418.97;5059254;28;19970;-85
2023/02/24 01:06:35;;;;;;;;;;;;;;;4.51;95.05;98418.09;5053993;28;19921;-85
2023/02/24 01:09:00;;;;;;;;;;;;;;;4.50;93.77;98422.56;5055495;28;19921;-85
2023/02/24 01:14:16;;;;;;;;;;;;;;;4.68;93.81;98410.38;5055335;28;19932;-85
2023/02/24 01:16:43;;;;;;;;;;;;;;;4.36;94.25;98399.97;5054894;28;19948;-85
2023/02/24 01:19:09;;;;;;;;;;;;;;;4.14;94.33;98397.97;5048009;28;19963;-85
2023/02/24 01:21:34;;;;;;;;;;;;;;;4.14;94.48;98403.25;5050898;28;19924;-85
2023/02/24 01:24:00;;;;;;;;;;;;;;;4.07;95.54;98402.50;5034367;28;19925;-85
2023/02/24 01:26:25;;;;;;;;;;;;;;;4.20;95.52;98400.53;5046756;28;19925;-85
2023/02/24 01:28:52;;;;;;;;;;;;;;;4.61;95.73;98393.81;5052141;28;19917;-85
2023/02/24 01:31:19;;;;;;;;;;;;;;;5.10;95.94;98401.50;5057053;28;19984;-85
2023/02/24 01:33:44;;;;;;;;;;;;;;;5.81;94.51;98402.25;5068097;28;19924;-86
2023/02/24 01:36:11;;;;;;;;;;;;;;;6.10;93.11;98402.41;5047655;28;19917;-86
2023/02/24 01:38:37;;;;;;;;;;;;;;;5.66;91.12;98396.59;5062498;28;19959;-86
2023/02/24 01:41:04;;;;;;;;;;;;;;;5.87;91.31;98390.81;5047180;28;19917;-86
2023/02/24 01:43:32;;;;;;;;;;;;;;;5.96;91.26;98394.69;5044815;28;20004;-86
2023/02/24 01:45:57;;;;;;;;;;;;;;;6.14;90.22;98379.75;5030579;28;20300;-86
2023/02/24 01:48:23;;;;;;;;;;;;;;;5.59;88.53;98373.94;5047147;28;19924;-86
2023/02/24 01:50:52;;;;;;;;;;;;;;;5.79;89.85;98366.44;5049630;28;19921;-85
2023/02/24 01:53:18;;;;;;;;;;;;;;;5.80;90.58;98357.47;5048234;28;20367;-85
2023/02/24 01:55:45;;;;;;;;;;;;;;;6.05;90.27;98348.28;5046093;28;19960;-86
2023/02/24 01:58:25;;;;;;;;;;;;;;;6.10;88.90;98350.25;5067951;28;19974;-85
2023/02/24 02:00:51;;;;;;;;;;;;;;;5.97;89.17;98342.53;5063190;28;20449;-84
2023/02/24 02:03:17;;;;;;;;;;;;;;;6.05;89.58;98350.94;5056090;28;19924;-84
2023/02/24 02:05:47;;;;;;;;;;;;;;;6.03;88.07;98346.91;5067773;28;19925;-85
2023/02/24 02:08:13;;;;;;;;;;;;;;;6.08;88.86;98347.03;5051770;28;19917;-85
2023/02/24 02:10:40;;;;;;;;;;;;;;;6.03;88.62;98346.91;5052948;28;19917;-85
2023/02/24 02:13:05;;;;;;;;;;;;;;;5.88;88.51;98349.22;5050838;28;19917;-85
2023/02/24 02:15:35;;;;;;;;;;;;;;;6.02;88.03;98346.13;5050237;28;20071;-85
2023/02/24 02:18:16;;;;;;;;;;;;;;;5.75;87.98;98336.97;5050980;28;19917;-86
2023/02/24 02:20:41;;;;;;;;;;;;;;;5.73;89.07;98333.75;5050784;28;20020;-85
2023/02/24 02:23:25;;;;;;;;;;;;;;;5.88;89.04;98339.44;5067397;28;19948;-85
2023/02/24 02:26:09;;;;;;;;;;;;;;;6.06;88.94;98346.47;5048252;28;19917;-86
2023/02/24 02:28:53;;;;;;;;;;;;;;;5.99;88.76;98340.47;5053554;28;19917;-84
2023/02/24 02:31:37;;;;;;;;;;;;;;;5.88;88.73;98336.78;5070048;28;21051;-85
2023/02/24 02:34:14;;;;;;;;;;;;;;;5.64;86.98;98331.69;5052847;28;19964;-85
2023/02/24 02:36:43;;;;;;;;;;;;;;;5.63;87.42;98327.44;5051352;28;20367;-84
2023/02/24 02:39:30;;;;;;;;;;;;;;;5.81;88.83;98319.38;5063731;28;19925;-84
2023/02/24 02:41:58;;;;;;;;;;;;;;;5.85;87.82;98317.91;5056708;28;19947;-84
2023/02/24 02:44:38;;;;;;;;;;;;;;;5.64;87.77;98327.19;5051029;28;20392;-84
2023/02/24 02:47:24;;;;;;;;;;;;;;;5.68;88.35;98322.25;5065789;28;20369;-84
2023/02/24 02:49:57;;;;;;;;;;;;;;;5.76;87.98;98319.25;5053691;28;19963;-85
2023/02/24 02:52:28;;;;;;;;;;;;;;;5.47;86.65;98326.25;5044796;28;20000;-85
2023/02/24 02:55:14;;;;;;;;;;;;;;;5.62;88.09;98317.88;5048437;28;19921;-85
2023/02/24 02:57:46;;;;;;;;;;;;;;;5.38;86.27;98313.59;5054265;28;19916;-85
2023/02/24 03:00:22;;;;;;;;;;;;;;;5.33;87.95;98304.50;5049290;28;19950;-84
2023/02/24 03:02:50;;;;;;;;;;;;;;;5.32;88.04;98294.97;5056091;28;19923;-84
2023/02/24 03:05:19;;;;;;;;;;;;;;;5.39;87.37;98297.50;5051551;28;19921;-84
2023/02/24 03:07:46;;;;;;;;;;;;;;;5.53;87.50;98304.16;5068277;28;20436;-84
2023/02/24 03:10:19;;;;;;;;;;;;;;;5.55;87.25;98296.81;5055543;28;21585;-84
2023/02/24 03:12:46;;;;;;;;;;;;;;;5.40;87.14;98295.63;5066713;28;19964;-84
2023/02/24 03:15:12;;;;;;;;;;;;;;;5.39;88.22;98289.56;5057214;28;19928;-84
2023/02/24 03:17:40;;;;;;;;;;;;;;;5.47;87.51;98272.53;5051364;28;19924;-85
2023/02/24 03:20:15;;;;;;;;;;;;;;;5.76;86.72;98266.31;5078340;28;19924;-84
2023/02/24 03:22:44;;;;;;;;;;;;;;;5.18;86.25;98267.09;5059541;28;19921;-85
2023/02/24 03:25:10;;;;;;;;;;;;;;;5.64;86.65;98261.00;5069955;28;19916;-85
2023/02/24 03:27:48;;;;;;;;;;;;;;;5.51;86.75;98255.94;5048981;28;19951;-84
2023/02/24 03:30:39;;;;;;;;;;;;;;;5.47;87.50;98257.44;5054719;28;19916;-84
2023/02/24 03:33:18;;;;;;;;;;;;;;;5.46;85.72;98250.53;5063926;28;20012;-84
2023/02/24 03:35:44;;;;;;;;;;;;;;;5.53;85.82;98253.88;5064575;28;19921;-84
2023/02/24 03:38:10;;;;;;;;;;;;;;;5.34;86.63;98244.44;5067623;28;19921;-86
2023/02/24 03:40:37;;;;;;;;;;;;;;;5.36;87.42;98237.09;5056838;28;19924;-85
2023/02/24 03:43:05;;;;;;;;;;;;;;;5.55;86.05;98241.22;5069536;28;19932;-86
2023/02/24 03:45:33;;;;;;;;;;;;;;;5.52;86.26;98243.53;5051253;28;20357;-85
2023/02/24 03:48:01;;;;;;;;;;;;;;;5.47;86.05;98241.56;5048813;28;20295;-85
2023/02/24 03:50:30;;;;;;;;;;;;;;;5.52;86.68;98235.59;5054428;28;20556;-86
2023/02/24 03:53:02;;;;;;;;;;;;;;;5.41;85.84;98239.03;5056582;28;19931;-85
2023/02/24 03:55:40;;;;;;;;;;;;;;;5.19;85.34;98229.03;5056026;28;20385;-86
2023/02/24 03:58:09;;;;;;;;;;;;;;;5.35;86.33;98227.56;5052258;28;20351;-86
2023/02/24 04:00:45;;;;;;;;;;;;;;;5.21;86.33;98232.25;5071216;28;19931;-85
2023/02/24 04:03:24;;;;;;;;;;;;;;;5.46;85.78;98239.16;5055092;28;19950;-85
2023/02/24 04:06:10;;;;;;;;;;;;;;;5.50;85.40;98243.78;5057415;28;19924;-85
2023/02/24 04:08:41;;;;;;;;;;;;;;;5.41;85.68;98239.03;5058738;28;19916;-85
2023/02/24 04:11:21;;;;;;;;;;;;;;;5.54;85.54;98244.91;5069230;28;19948;-86
2023/02/24 04:13:49;;;;;;;;;;;;;;;5.48;86.31;98237.91;5053581;28;19996;-85
2023/02/24 04:16:27;;;;;;;;;;;;;;;5.47;85.87;98244.22;5052642;28;19976;-85
2023/02/24 04:18:56;;;;;;;;;;;;;;;5.47;85.19;98236.28;5057023;28;19928;-84
2023/02/24 04:21:22;;;;;;;;;;;;;;;5.25;86.40;98233.41;5057205;28;20376;-84
2023/02/24 04:23:48;;;;;;;;;;;;;;;5.19;86.45;98233.50;5053674;28;19931;-84
2023/02/24 04:26:14;;;;;;;;;;;;;;;5.27;86.39;98225.22;5041792;28;20261;-85
2023/02/24 04:28:41;;;;;;;;;;;;;;;5.37;86.69;98232.59;5046393;28;19935;-85
2023/02/24 04:31:09;;;;;;;;;;;;;;;5.30;86.71;98220.31;5058455;28;20054;-85
2023/02/24 04:33:35;;;;;;;;;;;;;;;5.44;86.31;98220.84;5052819;28;19921;-85
2023/02/24 04:36:00;;;;;;;;;;;;;;;5.35;86.35;98221.44;5051485;28;20011;-85
2023/02/24 04:38:25;;;;;;;;;;;;;;;4.95;85.29;98214.19;5054374;28;19925;-85
2023/02/24 04:40:51;;;;;;;;;;;;;;;4.65;86.96;98215.25;5051632;28;19924;-84
2023/02/24 04:43:16;;;;;;;;;;;;;;;4.83;88.05;98215.97;5046699;28;19936;-85
2023/02/24 04:45:42;;;;;;;;;;;;;;;5.14;86.62;98205.09;5049418;28;20050;-85
2023/02/24 04:48:18;;;;;;;;;;;;;;;5.29;86.11;98205.44;5050315;28;19928;-84
2023/02/24 04:50:44;;;;;;;;;;;;;;;4.74;84.52;98203.34;5046026;28;19932;-86
2023/02/24 04:53:14;;;;;;;;;;;;;;;4.95;87.43;98206.25;5072853;28;20375;-85
2023/02/24 04:55:47;;;;;;;;;;;;;;;4.83;85.39;98200.13;5031241;28;19947;-85
2023/02/24 04:58:17;;;;;;;;;;;;;;;5.22;86.20;98188.09;5050600;28;20616;-84
2023/02/24 05:00:46;;;;;;;;;;;;;;;5.29;85.28;98191.41;5052642;28;19925;-84
2023/02/24 05:03:12;;;;;;;;;;;;;;;5.26;85.01;98190.03;5056923;28;19923;-84
2023/02/24 05:05:37;;;;;;;;;;;;;;;5.13;85.36;98182.31;5034595;28;20016;-84
2023/02/24 05:08:07;;;;;;;;;;;;;;;5.11;84.81;98178.31;5050838;28;19924;-85
2023/02/24 05:10:35;;;;;;;;;;;;;;;5.01;84.54;98173.59;5028657;28;20300;-85
2023/02/24 05:13:00;;;;;;;;;;;;;;;5.16;84.95;98168.66;5056438;28;19929;-84
2023/02/24 05:15:29;;;;;;;;;;;;;;;5.16;85.41;98165.19;5056003;28;19916;-84
2023/02/24 05:17:57;;;;;;;;;;;;;;;5.05;84.52;98166.78;5070091;28;20003;-84
2023/02/24 05:23:08;;;;;;;;;;;;;;;4.63;85.47;98165.25;5051950;28;19961;-84
2023/02/24 05:25:36;;;;;;;;;;;;;;;4.97;85.68;98163.69;5040643;28;19921;-86
2023/02/24 05:28:02;;;;;;;;;;;;;;;5.21;84.90;98158.19;5034324;28;19924;-85
2023/02/24 05:30:28;;;;;;;;;;;;;;;4.98;84.93;98152.88;5033053;28;20016;-86
2023/02/24 05:32:55;;;;;;;;;;;;;;;4.74;85.59;98153.88;5048125;28;19982;-84
2023/02/24 05:35:20;;;;;;;;;;;;;;;4.83;85.77;98144.59;5036648;28;19928;-86
2023/02/24 05:37:45;;;;;;;;;;;;;;;4.42;86.33;98150.75;5032933;28;20265;-85
2023/02/24 05:40:12;;;;;;;;;;;;;;;4.94;86.12;98145.63;5034913;28;19927;-86
2023/02/24 05:42:38;;;;;;;;;;;;;;;4.93;85.87;98149.31;5042838;28;20442;-86
2023/02/24 05:45:04;;;;;;;;;;;;;;;4.99;85.14;98135.19;5050878;28;19917;-86
2023/02/24 05:47:29;;;;;;;;;;;;;;;4.72;85.87;98134.03;5049809;28;19945;-85
2023/02/24 05:49:58;;;;;;;;;;;;;;;5.03;85.53;98136.31;5051397;28;19998;-85
2023/02/24 05:52:23;;;;;;;;;;;;;;;4.94;85.99;98135.88;5068276;28;20019;-85
2023/02/24 05:54:49;;;;;;;;;;;;;;;4.75;86.48;98131.72;5053321;28;20187;-85
2023/02/24 05:57:18;;;;;;;;;;;;;;;4.57;85.75;98124.69;5043170;28;19983;-84
2023/02/24 05:59:44;;;;;;;;;;;;;;;4.89;86.18;98133.09;5064130;28;19998;-85
2023/02/24 06:02:10;;;;;;;;;;;;;;;5.07;84.98;98125.06;5062115;28;19917;-85
2023/02/24 06:04:39;;;;;;;;;;;;;;;5.10;85.13;98135.19;5051912;28;19920;-85
2023/02/24 06:07:12;;;;;;;;;;;;;;;5.11;84.79;98128.06;5045507;28;21396;-85
2023/02/24 06:09:41;;;;;;;;;;;;;;;5.00;84.53;98128.88;5035006;28;19925;-85
2023/02/24 06:12:06;;;;;;;;;;;;;;;5.09;84.68;98117.69;5047219;28;19927;-85
2023/02/24 06:14:32;;;;;;;;;;;;;;;4.85;86.00;98124.03;5052010;28;20015;-86
2023/02/24 06:17:01;;;;;;;;;;;;;;;5.02;84.49;98122.28;5067123;28;19920;-85
2023/02/24 06:19:26;;;;;;;;;;;;;;;4.88;85.63;98122.75;5048111;28;19917;-86
2023/02/24 06:21:52;;;;;;;;;;;;;;;5.07;84.27;98111.84;5051949;28;19928;-86
2023/02/24 06:24:18;;;;;;;;;;;;;;;4.71;86.05;98116.53;5026340;28;20398;-86
2023/02/24 06:26:43;;;;;;;;;;;;;;;4.75;85.43;98118.50;5047957;28;19948;-86
2023/02/24 06:29:16;;;;;;;;;;;;;;;4.48;85.93;98115.47;5051743;28;19921;-85
2023/02/24 06:31:41;;;;;;;;;;;;;;;4.87;85.50;98113.22;5067147;28;20000;-86
2023/02/24 06:34:12;;;;;;;;;;;;;;;4.82;85.53;98111.28;5033723;28;19964;-86
2023/02/24 06:36:38;;;;;;;;;;;;;;;4.85;85.47;98110.03;5052645;28;19921;-86
2023/02/24 06:39:06;;;;;;;;;;;;;;;4.81;85.17;98112.31;5051903;28;19920;-85
2023/02/24 06:41:32;;;;;;;;;;;;;;;4.78;85.16;98107.50;5043954;28;19925;-86
2023/02/24 06:43:57;;;;;;;;;;;;;;;4.87;85.28;98106.09;5036644;28;20406;-86
2023/02/24 06:46:23;;;;;;;;;;;;;;;4.76;85.27;98100.81;5051355;28;19917;-85
2023/02/24 06:48:51;;;;;;;;;;;;;;;4.75;85.18;98102.66;5036516;28;19921;-86
2023/02/24 06:51:16;;;;;;;;;;;;;;;4.82;84.60;98100.69;5054238;28;19990;-86
2023/02/24 06:53:42;;;;;;;;;;;;;;;4.80;84.86;98101.97;5054123;28;19921;-86
2023/02/24 06:56:13;;;;;;;;;;;;;;;4.78;84.76;98098.75;5054647;28;19929;-86
2023/02/24 06:58:39;;;;;;;;;;;;;;;4.84;84.59;98095.19;5057689;28;19917;-86
2023/02/24 07:01:05;;;;;;;;;;;;;;;4.82;84.78;98090.13;5055336;28;20023;-86
2023/02/24 07:06:33;;;;;;;;;;;;;;;4.83;84.67;98086.44;5044353;28;19927;-86
2023/02/24 07:09:00;;;;;;;;;;;;;;;4.78;85.91;98093.47;5049037;28;19974;-86
2023/02/24 07:11:27;;;;;;;;;;;;;;;4.89;84.60;98076.78;5048435;28;19917;-86
2023/02/24 07:13:53;;;;;;;;;;;;;;;4.93;85.06;98080.59;5046447;28;21165;-88
2023/02/24 07:16:19;;;;;;;;;;;;;;;4.97;84.49;98079.06;5039900;28;19921;-86
2023/02/24 07:18:49;;;;;;;;;;;;;;;4.77;84.65;98082.06;5042854;28;20390;-87
2023/02/24 07:21:15;;;;;;;;;;;;;;;4.81;84.78;98072.66;5046695;28;19920;-87
2023/02/24 07:23:42;;;;;;;;;;;;;;;4.83;84.88;98075.06;5039803;28;20517;-87
2023/02/24 07:26:09;;;;;;;;;;;;;;;4.87;84.51;98078.88;5042874;28;19963;-87
2023/02/24 07:28:38;;;;;;;;;;;;;;;4.92;83.93;98063.91;5042601;28;19929;-86
2023/02/24 07:31:07;;;;;;;;;;;;;;;4.93;84.47;98060.25;5043367;28;19936;-86
2023/02/24 07:33:33;;;;;;;;;;;;;;;4.92;84.88;98061.25;5042491;28;19928;-84
2023/02/24 07:35:59;;;;;;;;;;;;;;;4.69;83.69;98060.47;5047155;28;19986;-85
2023/02/24 07:38:24;;;;;;;;;;;;;;;4.80;83.91;98054.38;5065803;28;20062;-85
2023/02/24 07:40:49;;;;;;;;;;;;;;;4.70;83.40;98054.13;5047844;28;20036;-85
2023/02/24 07:43:15;;;;;;;;;;;;;;;4.62;83.63;98057.13;5029994;28;19975;-85
2023/02/24 07:45:40;;;;;;;;;;;;;;;4.77;84.37;98053.00;5057606;28;19917;-84
2023/02/24 07:48:06;;;;;;;;;;;;;;;4.78;84.23;98051.16;5057043;28;19963;-84
2023/02/24 07:50:31;;;;;;;;;;;;;;;4.85;83.99;98043.94;5069728;28;20039;-84
2023/02/24 07:52:58;;;;;;;;;;;;;;;4.85;83.85;98038.63;5055856;28;19920;-84
2023/02/24 07:55:24;;;;;;;;;;;;;;;4.74;83.29;98028.88;5038117;28;19971;-84
2023/02/24 07:57:50;;;;;;;;;;;;;;;4.97;82.84;98034.13;5055989;28;19978;-85
2023/02/24 08:00:19;;;;;;;;;;;;;;;4.83;83.61;98027.47;5070585;28;19924;-86
2023/02/24 08:02:45;;;;;;;;;;;;;;;4.82;82.58;98012.66;5054847;28;19980;-86
2023/02/24 08:05:10;;;;;;;;;;;;;;;4.75;83.58;98009.31;5047515;28;19924;-85
2023/02/24 08:07:36;;;;;;;;;;;;;;;4.78;84.05;97993.81;5068450;28;19921;-84
2023/02/24 08:10:22;;;;;;;;;;;;;;;4.85;83.90;98001.63;5048699;28;19928;-84
2023/02/24 08:12:51;;;;;;;;;;;;;;;4.77;83.71;97992.19;5046984;28;19921;-84
2023/02/24 08:15:16;;;;;;;;;;;;;;;4.83;84.05;97990.47;5048481;28;19925;-85
2023/02/24 08:17:43;;;;;;;;;;;;;;;5.01;83.51;97982.38;5053966;28;19921;-86
2023/02/24 08:22:37;;;;;;;;;;;;;;;4.64;82.70;97973.94;5050332;28;20372;-85
2023/02/24 08:25:05;;;;;;;;;;;;;;;4.90;83.00;97973.44;5055052;28;19963;-85
2023/02/24 08:27:32;;;;;;;;;;;;;;;4.72;81.57;97973.59;5067335;28;20318;-85
2023/02/24 08:29:58;;;;;;;;;;;;;;;4.72;83.77;97964.88;5054684;28;19968;-84
2023/02/24 08:32:32;;;;;;;;;;;;;;;4.49;81.77;97963.06;5048587;28;19967;-84
2023/02/24 08:35:01;;;;;;;;;;;;;;;4.78;83.37;97961.28;5048306;28;19925;-84
2023/02/24 08:37:32;;;;;;;;;;;;;;;5.02;83.10;97953.06;5051971;28;19952;-85
2023/02/24 08:39:57;;;;;;;;;;;;;;;5.07;81.99;97955.00;5047797;28;19924;-84
2023/02/24 08:42:29;;;;;;;;;;;;;;;4.99;82.83;97961.47;5049983;28;19940;-84
2023/02/24 08:44:56;;;;;;;;;;;;;;;4.92;83.22;97938.84;5049396;28;20417;-85
2023/02/24 08:47:29;;;;;;;;;;;;;;;4.59;82.83;97934.19;5029738;28;19966;-84
2023/02/24 08:49:55;;;;;;;;;;;;;;;4.66;83.39;97936.72;5043627;28;19921;-84
2023/02/24 08:52:20;;;;;;;;;;;;;;;4.30;82.42;97922.75;5040626;28;20019;-86
2023/02/24 08:54:48;;;;;;;;;;;;;;;4.38;81.81;97918.97;5049495;28;19921;-85
2023/02/24 08:57:16;;;;;;;;;;;;;;;4.72;81.94;97926.00;5071384;28;19921;-85
2023/02/24 08:59:48;;;;;;;;;;;;;;;4.26;81.33;97913.66;5055040;28;19951;-86
2023/02/24 09:02:22;;;;;;;;;;;;;;;4.91;82.47;97914.25;5054472;28;19916;-85
2023/02/24 09:04:56;;;;;;;;;;;;;;;4.89;81.35;97910.25;5051946;28;19927;-86
2023/02/24 09:07:40;;;;;;;;;;;;;;;5.00;81.47;97907.53;5067401;28;19917;-84
2023/02/24 09:10:10;;;;;;;;;;;;;;;4.75;79.27;97899.13;5069118;28;19920;-84
2023/02/24 09:12:40;;;;;;;;;;;;;;;4.65;81.08;97900.75;5050900;28;20015;-84
2023/02/24 09:15:06;;;;;;;;;;;;;;;4.88;80.27;97884.81;5049073;28;19999;-85
2023/02/24 09:22:58;;;;;;;;;;;;;;;4.94;79.58;97879.41;5051655;28;19917;-86
2023/02/24 09:25:24;;;;;;;;;;;;;;;4.50;79.31;97883.56;5050886;28;19924;-86
2023/02/24 09:28:08;;;;;;;;;;;;;;;4.47;79.28;97876.09;5048929;28;20363;-86
2023/02/24 09:30:35;;;;;;;;;;;;;;;4.43;78.49;97874.16;5051053;28;19925;-85
2023/02/24 09:33:16;;;;;;;;;;;;;;;4.92;81.02;97872.72;5033041;28;20318;-85
2023/02/24 09:35:42;;;;;;;;;;;;;;;4.96;79.97;97879.97;5048714;28;20102;-86
2023/02/24 09:38:07;;;;;;;;;;;;;;;4.34;78.02;97884.28;5051849;28;20443;-85
2023/02/24 09:40:39;;;;;;;;;;;;;;;4.20;79.79;97875.00;5065867;28;20013;-86
2023/02/24 09:43:43;;;;;;;;;;;;;;;4.85;80.51;97862.31;5051289;28;19920;-86
2023/02/24 09:46:13;;;;;;;;;;;;;;;4.57;79.03;97860.44;5047889;28;19921;-84
2023/02/24 09:48:46;;;;;;;;;;;;;;;4.54;80.22;97852.19;5057478;28;19925;-85
2023/02/24 09:51:20;;;;;;;;;;;;;;;4.59;79.05;97854.91;5068071;28;19916;-86
2023/02/24 09:53:53;;;;;;;;;;;;;;;4.57;80.14;97857.00;5067089;28;19917;-86
2023/02/24 09:56:20;;;;;;;;;;;;;;;4.22;77.99;97857.06;5058604;28;19925;-86
2023/02/24 09:59:08;;;;;;;;;;;;;;;3.72;76.55;97834.84;5046322;28;19917;-86
2023/02/24 10:01:34;;;;;;;;;;;;;;;3.95;77.44;97842.78;5050629;28;19924;-83
2023/02/24 10:04:05;;;;;;;;;;;;;;;4.13;80.82;97841.84;5067812;28;20322;-86
2023/02/24 10:06:36;;;;;;;;;;;;;;;4.26;78.71;97836.31;5065830;28;19917;-87
2023/02/24 10:09:11;;;;;;;;;;;;;;;4.67;79.98;97832.63;5063672;28;20422;-87
2023/02/24 10:11:52;;;;;;;;;;;;;;;3.93;76.27;97834.28;5067610;28;20426;-87
2023/02/24 10:14:19;;;;;;;;;;;;;;;4.53;80.35;97826.81;5045416;28;19927;-86
2023/02/24 10:16:57;;;;;;;;;;;;;;;4.43;77.22;97816.03;5045584;28;19921;-86
2023/02/24 10:19:23;;;;;;;;;;;;;;;4.58;79.03;97813.69;5038948;28;19971;-87
2023/02/24 10:22:01;;;;;;;;;;;;;;;4.46;79.00;97805.81;5051531;28;19924;-85
2023/02/24 10:24:33;;;;;;;;;;;;;;;4.66;78.25;97801.94;5048986;28;20008;-84
2023/02/24 10:27:01;;;;;;;;;;;;;;;4.61;79.03;97809.78;5064879;28;19978;-84
2023/02/24 10:29:37;;;;;;;;;;;;;;;4.23;76.61;97795.31;5045869;28;19924;-85
2023/02/24 10:32:05;;;;;;;;;;;;;;;4.57;78.64;97799.69;5051967;28;20249;-84
2023/02/24 10:34:31;;;;;;;;;;;;;;;4.53;77.87;97803.03;5069490;28;19928;-84
2023/02/24 10:36:59;;;;;;;;;;;;;;;4.86;77.91;97794.38;5054594;28;19991;-84
2023/02/24 10:39:25;;;;;;;;;;;;;;;4.37;77.67;97790.53;5052110;28;20277;-84
2023/02/24 10:42:14;;;;;;;;;;;;;;;4.59;78.45;97790.72;5050138;28;19932;-86
2023/02/24 10:44:50;;;;;;;;;;;;;;;4.60;77.86;97795.75;5050944;28;19924;-84
2023/02/24 10:47:16;;;;;;;;;;;;;;;4.70;78.12;97787.19;5050280;28;20397;-86
2023/02/24 10:49:55;;;;;;;;;;;;;;;4.74;78.65;97788.34;5035029;28;19929;-86
2023/02/24 10:55:37;;;;;;;;;;;;;;;4.22;79.10;97787.59;5053909;28;19971;-86
2023/02/24 10:58:09;;;;;;;;;;;;;;;4.35;80.45;97784.69;5047834;28;19967;-83
2023/02/24 11:06:40;;;;;;;;;;;;;;;4.51;80.73;97774.19;5002179;28;19925;-85
2023/02/24 11:09:18;;;;;;;;;;;;;;;4.43;80.57;97757.94;5068258;28;19917;-85
2023/02/24 11:17:19;;;;;;;;;;;;;;;4.63;80.66;97746.94;5053651;28;19931;-84
2023/02/24 11:19:47;;;;;;;;;;;;;;;4.29;81.05;97749.47;5066591;28;20648;-86
2023/02/24 11:22:16;;;;;;;;;;;;;;;4.25;81.43;97739.63;5048306;28;19971;-85
2023/02/24 11:24:42;;;;;;;;;;;;;;;4.61;81.63;97735.78;5068810;28;20331;-85
2023/02/24 11:27:09;;;;;;;;;;;;;;;4.46;82.25;97726.53;5048831;28;19932;-86
2023/02/24 11:29:46;;;;;;;;;;;;;;;4.42;81.94;97717.50;5052616;28;20404;-85
2023/02/24 11:32:31;;;;;;;;;;;;;;;4.36;82.66;97707.88;5056320;28;20376;-85
2023/02/24 11:35:16;;;;;;;;;;;;;;;4.49;82.11;97704.94;5054799;28;20058;-86
2023/02/24 11:37:50;;;;;;;;;;;;;;;4.51;82.67;97702.06;5065958;28;19932;-85
2023/02/24 11:40:18;;;;;;;;;;;;;;;4.49;82.29;97702.31;5071185;28;20400;-85
2023/02/24 11:42:53;;;;;;;;;;;;;;;4.61;81.34;97693.53;5060821;28;20321;-85
2023/02/24 11:45:18;;;;;;;;;;;;;;;4.61;82.03;97683.72;5070374;28;19927;-86
2023/02/24 11:47:47;;;;;;;;;;;;;;;4.57;81.96;97675.50;5058170;28;20467;-86
2023/02/24 11:50:19;;;;;;;;;;;;;;;4.52;82.24;97675.41;5051633;28;20287;-85
2023/02/24 11:52:47;;;;;;;;;;;;;;;4.64;82.36;97666.59;5062354;28;20479;-84
2023/02/24 11:55:24;;;;;;;;;;;;;;;4.45;82.02;97661.56;5053996;28;19971;-83
2023/02/24 11:57:53;;;;;;;;;;;;;;;4.19;83.30;97661.34;5053466;28;19917;-85
2023/02/24 12:00:20;;;;;;;;;;;;;;;4.41;83.62;97652.47;5038678;28;20127;-85
2023/02/24 12:03:03;;;;;;;;;;;;;;;4.40;82.14;97647.44;5056967;28;20042;-85
2023/02/24 12:05:35;;;;;;;;;;;;;;;4.39;83.73;97649.28;5069121;28;20008;-85
2023/02/24 12:08:10;;;;;;;;;;;;;;;4.18;82.54;97638.59;5062364;28;19917;-85
2023/02/24 12:10:38;;;;;;;;;;;;;;;4.37;83.93;97632.88;5055210;28;19920;-85
2023/02/24 12:13:09;;;;;;;;;;;;;;;4.11;83.91;97628.19;5054974;28;19973;-85
2023/02/24 12:15:58;;;;;;;;;;;;;;;4.15;84.30;97621.38;5070436;28;19951;-86
2023/02/24 12:18:32;;;;;;;;;;;;;;;3.79;85.35;97616.50;5049661;28;19940;-84
2023/02/24 12:21:01;;;;;;;;;;;;;;;4.38;83.75;97609.91;5072571;28;19988;-84
2023/02/24 12:23:34;;;;;;;;;;;;;;;4.63;83.19;97607.66;5055661;28;19928;-86
2023/02/24 12:26:18;;;;;;;;;;;;;;;4.57;83.14;97611.25;5047910;28;19926;-86
2023/02/24 12:28:56;;;;;;;;;;;;;;;4.61;83.48;97612.38;5055748;28;19913;-86
2023/02/24 12:31:24;;;;;;;;;;;;;;;4.65;82.99;97600.31;5054399;28;19928;-85
2023/02/24 12:33:52;;;;;;;;;;;;;;;4.42;83.99;97592.53;5049084;28;21298;-86
2023/02/24 12:36:35;;;;;;;;;;;;;;;4.37;83.82;97593.25;5053915;28;19929;-85
2023/02/24 12:39:30;;;;;;;;;;;;;;;4.21;83.90;97588.78;5071811;28;19928;-84
2023/02/24 12:42:10;;;;;;;;;;;;;;;4.41;82.40;97581.16;5045705;28;19925;-86
2023/02/24 12:44:38;;;;;;;;;;;;;;;4.49;83.33;97582.63;5057065;28;20295;-87
2023/02/24 12:47:05;;;;;;;;;;;;;;;4.63;83.10;97577.81;5075813;28;20351;-86
2023/02/24 12:49:44;;;;;;;;;;;;;;;4.17;83.02;97569.13;5055890;28;20019;-87
2023/02/24 12:52:25;;;;;;;;;;;;;;;4.44;82.98;97574.59;5073896;28;19919;-87
2023/02/24 12:54:54;;;;;;;;;;;;;;;4.18;83.59;97568.13;5048656;28;19920;-87
2023/02/24 12:57:27;;;;;;;;;;;;;;;4.24;84.08;97561.06;5052771;28;20004;-87
2023/02/24 12:59:52;;;;;;;;;;;;;;;4.33;84.31;97557.78;5070017;28;20283;-87
2023/02/24 13:02:35;;;;;;;;;;;;;;;4.57;82.90;97548.66;5035573;28;19924;-88
2023/02/24 13:05:20;;;;;;;;;;;;;;;4.35;83.51;97552.25;5052682;28;19916;-86
2023/02/24 13:07:55;;;;;;;;;;;;;;;4.32;82.43;97547.47;5064857;28;19916;-86
2023/02/24 13:10:36;;;;;;;;;;;;;;;4.53;82.59;97547.56;5051566;28;19931;-87
2023/02/24 13:13:22;;;;;;;;;;;;;;;4.26;83.49;97537.88;5050508;28;20016;-87
2023/02/24 13:15:48;;;;;;;;;;;;;;;4.14;84.21;97539.78;5047582;28;20466;-87
2023/02/24 13:18:21;;;;;;;;;;;;;;;4.01;84.03;97532.97;5063273;28;19923;-86
2023/02/24 13:20:47;;;;;;;;;;;;;;;4.22;84.64;97526.19;5068170;28;20038;-86
2023/02/24 13:23:19;;;;;;;;;;;;;;;3.96;83.65;97511.78;5068044;28;20011;-86
2023/02/24 13:25:52;;;;;;;;;;;;;;;3.84;82.86;97518.16;5047669;28;19924;-86
2023/02/24 13:28:32;;;;;;;;;;;;;;;3.75;83.83;97513.28;5051152;28;19929;-87
2023/02/24 13:31:04;;;;;;;;;;;;;;;4.42;83.64;97502.72;5048309;28;19924;-86
2023/02/24 13:33:32;;;;;;;;;;;;;;;4.41;82.99;97501.13;5047500;28;20007;-85
2023/02/24 13:36:27;;;;;;;;;;;;;;;4.31;83.15;97490.41;5048590;28;20519;-86
2023/02/24 13:39:05;;;;;;;;;;;;;;;4.14;82.79;97485.16;5041823;28;19971;-86
2023/02/24 13:41:30;;;;;;;;;;;;;;;4.25;83.67;97481.63;5051206;28;19921;-86
2023/02/24 13:43:58;;;;;;;;;;;;;;;4.03;83.73;97483.38;5056187;28;19931;-86